createdAt,value
2023-03-06T00:01:28.641Z,-0.33
2023-03-06T00:03:55.403Z,-0.32
2023-03-06T00:06:22.441Z,-0.35
2023-03-06T00:08:49.242Z,-0.43
2023-03-06T00:11:15.969Z,-0.47
2023-03-06T00:13:42.681Z,-0.47
2023-03-06T00:16:09.623Z,-0.48
2023-03-06T00:18:36.475Z,-0.49
2023-03-06T00:21:07.392Z,-0.47
2023-03-06T00:23:34.299Z,-0.45
2023-03-06T00:26:01.167Z,-0.48
2023-03-06T00:28:30.931Z,-0.53
2023-03-06T00:30:57.668Z,-0.56
2023-03-06T00:33:24.419Z,-0.60
2023-03-06T00:35:55.156Z,-0.66
2023-03-06T00:38:22.153Z,-0.69
2023-03-06T00:40:50.061Z,-0.70
2023-03-06T00:43:16.804Z,-0.69
2023-03-06T00:45:43.578Z,-0.69
2023-03-06T00:48:10.351Z,-0.72
2023-03-06T00:50:37.640Z,-0.73
2023-03-06T00:53:04.423Z,-0.76
2023-03-06T00:55:33.015Z,-0.81
2023-03-06T00:57:59.917Z,-0.85
2023-03-06T01:00:27.361Z,-0.89
2023-03-06T01:02:54.116Z,-0.90
2023-03-06T01:05:22.151Z,-0.91
2023-03-06T01:07:49.054Z,-0.89
2023-03-06T01:10:15.860Z,-0.87
2023-03-06T01:12:42.797Z,-0.87
2023-03-06T01:15:12.967Z,-0.86
2023-03-06T01:17:39.960Z,-0.87
2023-03-06T01:20:07.840Z,-0.89
2023-03-06T01:22:35.649Z,-0.94
2023-03-06T01:25:02.377Z,-0.97
2023-03-06T01:27:29.130Z,-0.98
2023-03-06T01:29:55.999Z,-0.96
2023-03-06T01:32:22.920Z,-0.93
2023-03-06T01:34:49.895Z,-0.91
2023-03-06T01:37:16.901Z,-0.90
2023-03-06T01:39:43.743Z,-0.90
2023-03-06T01:42:11.920Z,-0.92
2023-03-06T01:44:59.130Z,-0.97
2023-03-06T01:47:26.134Z,-1.01
2023-03-06T01:49:53.516Z,-1.03
2023-03-06T01:52:26.066Z,-1.03
2023-03-06T01:54:59.616Z,-1.01
2023-03-06T01:57:32.607Z,-1.00
2023-03-06T02:00:08.324Z,-1.00
2023-03-06T02:02:48.194Z,-1.05
2023-03-06T02:05:15.153Z,-1.16
2023-03-06T02:07:43.183Z,-1.23
2023-03-06T02:10:14.865Z,-1.28
2023-03-06T02:12:43.766Z,-1.32
2023-03-06T02:15:12.738Z,-1.37
2023-03-06T02:17:40.451Z,-1.41
2023-03-06T02:20:10.756Z,-1.42
2023-03-06T02:23:00.329Z,-1.42
2023-03-06T02:25:45.401Z,-1.41
2023-03-06T02:28:14.978Z,-1.34
2023-03-06T02:30:44.177Z,-1.29
2023-03-06T02:33:15.003Z,-1.24
2023-03-06T02:35:49.846Z,-1.20
2023-03-06T02:38:19.623Z,-1.17
2023-03-06T02:40:49.651Z,-1.15
2023-03-06T02:43:22.273Z,-1.15
2023-03-06T02:45:51.274Z,-1.14
2023-03-06T02:48:19.948Z,-1.10
2023-03-06T02:50:48.425Z,-1.06
2023-03-06T02:53:18.100Z,-1.01
2023-03-06T02:55:44.994Z,-0.93
2023-03-06T02:58:12.366Z,-0.85
2023-03-06T03:00:40.261Z,-0.78
2023-03-06T03:03:08.956Z,-0.72
2023-03-06T03:05:35.700Z,-0.67
2023-03-06T03:08:10.249Z,-0.64
2023-03-06T03:10:37.146Z,-0.60
2023-03-06T03:13:04.012Z,-0.57
2023-03-06T03:15:31.007Z,-0.53
2023-03-06T03:17:57.749Z,-0.49
2023-03-06T03:20:24.548Z,-0.46
2023-03-06T03:22:55.002Z,-0.43
2023-03-06T03:25:24.331Z,-0.41
2023-03-06T03:27:51.815Z,-0.40
2023-03-06T03:30:20.161Z,-0.40
2023-03-06T03:32:47.058Z,-0.42
2023-03-06T03:35:13.826Z,-0.47
2023-03-06T03:37:41.519Z,-0.49
2023-03-06T03:40:10.377Z,-0.49
2023-03-06T03:42:38.458Z,-0.48
2023-03-06T03:45:06.083Z,-0.47
2023-03-06T03:47:32.910Z,-0.43
2023-03-06T03:50:00.228Z,-0.41
2023-03-06T03:52:27.335Z,-0.40
2023-03-06T03:54:54.734Z,-0.40
2023-03-06T03:57:22.349Z,-0.39
2023-03-06T03:59:50.887Z,-0.40
2023-03-06T04:02:25.550Z,-0.43
2023-03-06T04:05:08.349Z,-0.42
2023-03-06T04:07:35.506Z,-0.44
2023-03-06T04:10:04.139Z,-0.44
2023-03-06T04:12:31.084Z,-0.42
2023-03-06T04:14:58.206Z,-0.42
2023-03-06T04:17:26.035Z,-0.43
2023-03-06T04:19:54.294Z,-0.48
2023-03-06T04:22:22.232Z,-0.55
2023-03-06T04:24:49.996Z,-0.62
2023-03-06T04:27:17.561Z,-0.70
2023-03-06T04:29:44.856Z,-0.78
2023-03-06T04:32:11.858Z,-0.85
2023-03-06T04:34:39.443Z,-0.92
2023-03-06T04:37:06.378Z,-0.97
2023-03-06T04:39:33.185Z,-0.98
2023-03-06T04:41:59.882Z,-0.98
2023-03-06T04:44:26.894Z,-1.02
2023-03-06T04:46:53.752Z,-1.06
2023-03-06T04:49:20.836Z,-1.11
2023-03-06T04:51:47.621Z,-1.18
2023-03-06T04:54:14.376Z,-1.29
2023-03-06T04:56:41.107Z,-1.39
2023-03-06T04:59:08.233Z,-1.48
2023-03-06T05:01:36.326Z,-1.55
2023-03-06T05:04:03.690Z,-1.60
2023-03-06T05:06:30.449Z,-1.62
2023-03-06T05:08:59.543Z,-1.62
2023-03-06T05:11:26.341Z,-1.60
2023-03-06T05:13:54.338Z,-1.62
2023-03-06T05:16:21.340Z,-1.64
2023-03-06T05:18:50.511Z,-1.68
2023-03-06T05:21:17.744Z,-1.73
2023-03-06T05:23:44.593Z,-1.76
2023-03-06T05:26:13.539Z,-1.81
2023-03-06T05:28:41.419Z,-1.85
2023-03-06T05:31:08.393Z,-1.83
2023-03-06T05:33:36.489Z,-1.82
2023-03-06T05:36:04.337Z,-1.78
2023-03-06T05:38:32.330Z,-1.71
2023-03-06T05:40:59.144Z,-1.64
2023-03-06T05:43:25.876Z,-1.56
2023-03-06T05:46:01.490Z,-1.47
2023-03-06T05:48:28.349Z,-1.44
2023-03-06T05:50:57.246Z,-1.37
2023-03-06T05:53:26.955Z,-1.32
2023-03-06T05:55:59.244Z,-1.29
2023-03-06T05:58:26.885Z,-1.22
2023-03-06T06:00:53.932Z,-1.14
2023-03-06T06:03:21.179Z,-1.04
2023-03-06T06:05:51.674Z,-0.95
2023-03-06T06:08:21.275Z,-0.84
2023-03-06T06:10:48.001Z,-0.72
2023-03-06T06:13:14.959Z,-0.61
2023-03-06T06:15:41.728Z,-0.57
2023-03-06T06:18:08.533Z,-0.50
2023-03-06T06:20:37.583Z,-0.42
2023-03-06T06:23:04.720Z,-0.36
2023-03-06T06:25:31.914Z,-0.29
2023-03-06T06:27:58.614Z,-0.21
2023-03-06T06:30:25.457Z,-0.12
2023-03-06T06:32:53.227Z,0.02
2023-03-06T06:35:20.179Z,0.17
2023-03-06T06:37:47.000Z,0.26
2023-03-06T06:40:15.049Z,0.33
2023-03-06T06:42:43.340Z,0.40
2023-03-06T06:45:11.339Z,0.45
2023-03-06T06:47:41.625Z,0.50
2023-03-06T06:50:13.182Z,0.56
2023-03-06T06:52:40.173Z,0.63
2023-03-06T06:55:08.236Z,0.71
2023-03-06T06:57:35.137Z,0.77
2023-03-06T07:00:02.384Z,0.83
2023-03-06T07:02:29.146Z,0.91
2023-03-06T07:05:04.058Z,0.99
2023-03-06T07:07:35.705Z,1.12
2023-03-06T07:10:05.622Z,1.25
2023-03-06T07:12:33.035Z,1.39
2023-03-06T07:14:59.791Z,1.44
2023-03-06T07:17:26.559Z,1.49
2023-03-06T07:19:53.315Z,1.52
2023-03-06T07:22:21.318Z,1.55
2023-03-06T07:24:48.130Z,1.62
2023-03-06T07:27:14.877Z,1.76
2023-03-06T07:29:43.709Z,1.92
2023-03-06T07:32:11.450Z,2.11
2023-03-06T07:35:02.724Z,2.29
2023-03-06T07:37:39.877Z,2.46
2023-03-06T07:40:09.600Z,2.57
2023-03-06T07:42:36.440Z,2.69
2023-03-06T07:45:05.138Z,2.90
2023-03-06T07:47:45.690Z,3.11
2023-03-06T07:50:12.905Z,3.34
2023-03-06T07:52:39.777Z,3.66
2023-03-06T07:55:07.134Z,3.98
2023-03-06T07:57:33.878Z,4.14
2023-03-06T08:00:00.754Z,4.21
2023-03-06T08:02:27.551Z,4.24
2023-03-06T08:04:55.488Z,4.28
2023-03-06T08:07:23.000Z,4.25
2023-03-06T08:09:49.894Z,4.21
2023-03-06T08:12:16.767Z,4.20
2023-03-06T08:14:43.562Z,4.13
2023-03-06T08:17:11.470Z,4.09
2023-03-06T08:19:38.500Z,4.02
2023-03-06T08:22:06.667Z,4.00
2023-03-06T08:24:34.682Z,4.07
2023-03-06T08:27:01.401Z,4.15
2023-03-06T08:29:28.184Z,4.23
2023-03-06T08:31:55.038Z,4.25
2023-03-06T08:34:24.427Z,4.28
2023-03-06T08:36:51.561Z,4.27
2023-03-06T08:39:19.203Z,4.33
2023-03-06T08:41:45.962Z,4.50
2023-03-06T08:44:13.039Z,4.57
2023-03-06T08:46:40.354Z,4.69
2023-03-06T08:49:07.525Z,4.78
2023-03-06T08:51:34.409Z,4.97
2023-03-06T08:54:02.441Z,5.15
2023-03-06T08:56:32.311Z,5.33
2023-03-06T08:59:01.786Z,5.54
2023-03-06T09:01:35.684Z,5.89
2023-03-06T09:04:05.594Z,6.50
2023-03-06T09:06:36.290Z,7.14
2023-03-06T09:09:04.072Z,7.71
2023-03-06T09:11:31.284Z,8.21
2023-03-06T09:13:59.841Z,8.58
2023-03-06T09:16:27.466Z,9.00
2023-03-06T09:18:54.482Z,9.32
2023-03-06T09:21:22.689Z,9.61
2023-03-06T09:23:50.008Z,9.65
2023-03-06T09:26:17.673Z,9.74
2023-03-06T09:28:44.437Z,9.67
2023-03-06T09:31:13.885Z,9.44
2023-03-06T09:33:40.907Z,9.38
2023-03-06T09:36:13.834Z,9.40
2023-03-06T09:38:40.635Z,9.55
2023-03-06T09:41:11.784Z,9.50
2023-03-06T09:43:43.603Z,9.36
2023-03-06T09:46:23.826Z,9.34
2023-03-06T09:48:51.823Z,9.20
2023-03-06T09:51:32.764Z,9.11
2023-03-06T09:54:08.413Z,9.17
2023-03-06T09:56:37.055Z,9.21
2023-03-06T09:59:13.440Z,9.03
2023-03-06T10:01:44.980Z,8.71
2023-03-06T10:04:44.046Z,8.47
2023-03-06T10:07:15.781Z,8.42
2023-03-06T10:09:47.654Z,8.39
2023-03-06T10:12:24.825Z,8.32
2023-03-06T10:15:27.158Z,8.25
2023-03-06T10:17:57.207Z,8.27
2023-03-06T10:20:28.750Z,8.39
2023-03-06T10:23:25.164Z,8.51
2023-03-06T10:26:02.332Z,8.65
2023-03-06T10:28:36.505Z,8.52
2023-03-06T10:31:12.357Z,8.48
2023-03-06T10:33:47.505Z,8.40
2023-03-06T10:36:18.861Z,8.35
2023-03-06T10:38:48.775Z,8.38
2023-03-06T10:41:24.371Z,8.41
2023-03-06T10:44:08.097Z,8.49
2023-03-06T10:46:37.544Z,8.56
2023-03-06T10:49:21.923Z,8.47
2023-03-06T10:52:05.495Z,8.29
2023-03-06T10:54:42.591Z,8.16
2023-03-06T10:57:26.558Z,8.09
2023-03-06T10:59:56.014Z,8.16
2023-03-06T11:02:36.807Z,8.41
2023-03-06T11:05:05.586Z,8.73
2023-03-06T11:07:35.233Z,8.95
2023-03-06T11:10:19.958Z,9.14
2023-03-06T11:13:07.694Z,9.52
2023-03-06T11:15:39.914Z,9.75
2023-03-06T11:18:07.668Z,9.86
2023-03-06T11:20:52.634Z,9.88
2023-03-06T11:23:44.380Z,9.64
2023-03-06T11:26:20.368Z,9.37
2023-03-06T11:28:50.001Z,9.09
2023-03-06T11:31:21.501Z,8.92
2023-03-06T11:33:54.308Z,9.01
2023-03-06T11:36:31.509Z,9.15
2023-03-06T11:38:59.945Z,9.16
2023-03-06T11:41:48.697Z,8.97
2023-03-06T11:44:24.695Z,8.77
2023-03-06T11:47:05.930Z,8.59
2023-03-06T11:49:40.733Z,8.41
2023-03-06T11:52:22.214Z,8.29
2023-03-06T11:54:55.010Z,8.21
2023-03-06T11:57:30.856Z,8.07
2023-03-06T12:00:08.373Z,8.00
2023-03-06T12:02:44.268Z,7.99
2023-03-06T12:05:41.773Z,7.88
2023-03-06T12:08:26.663Z,7.77
2023-03-06T12:11:15.101Z,7.65
2023-03-06T12:13:59.447Z,7.63
2023-03-06T12:16:58.697Z,7.60
2023-03-06T12:19:33.198Z,7.54
2023-03-06T12:22:01.333Z,7.44
2023-03-06T12:24:58.191Z,7.33
2023-03-06T12:27:41.204Z,7.27
2023-03-06T12:30:24.517Z,7.20
2023-03-06T12:33:14.482Z,7.07
2023-03-06T12:35:58.364Z,7.05
2023-03-06T12:38:34.769Z,7.03
2023-03-06T12:41:32.106Z,6.95
2023-03-06T12:44:34.948Z,6.88
2023-03-06T12:47:08.959Z,6.82
2023-03-06T12:49:38.845Z,6.74
2023-03-06T12:52:09.782Z,6.65
2023-03-06T12:54:40.339Z,6.60
2023-03-06T12:57:09.405Z,6.53
2023-03-06T12:59:44.164Z,6.44
2023-03-06T13:02:17.810Z,6.36
2023-03-06T13:05:07.341Z,6.30
2023-03-06T13:07:42.357Z,6.23
2023-03-06T13:10:09.496Z,6.19
2023-03-06T13:12:42.095Z,6.15
2023-03-06T13:15:36.388Z,6.09
2023-03-06T13:18:23.150Z,5.96
2023-03-06T13:20:51.570Z,5.88
2023-03-06T13:23:33.837Z,5.94
2023-03-06T13:26:02.092Z,6.05
2023-03-06T13:28:46.225Z,6.12
2023-03-06T13:31:26.638Z,6.19
2023-03-06T13:34:03.016Z,6.20
2023-03-06T13:36:35.882Z,6.21
2023-03-06T13:39:07.141Z,6.28
2023-03-06T13:41:37.644Z,6.32
2023-03-06T13:44:24.640Z,6.33
2023-03-06T13:47:18.726Z,6.38
2023-03-06T13:49:48.795Z,6.41
2023-03-06T13:52:29.586Z,6.48
2023-03-06T13:55:00.961Z,6.50
2023-03-06T13:57:44.450Z,6.42
2023-03-06T14:00:30.043Z,6.30
2023-03-06T14:03:19.506Z,6.27
2023-03-06T14:05:48.375Z,6.24
2023-03-06T14:08:18.944Z,6.22
2023-03-06T14:10:47.612Z,6.25
2023-03-06T14:13:16.021Z,6.28
2023-03-06T14:15:47.653Z,6.27
2023-03-06T14:18:37.214Z,6.27
2023-03-06T14:21:09.090Z,6.29
2023-03-06T14:23:42.609Z,6.29
2023-03-06T14:26:19.311Z,6.23
2023-03-06T14:28:53.387Z,6.17
2023-03-06T14:31:23.011Z,6.16
2023-03-06T14:33:58.408Z,6.13
2023-03-06T14:36:34.988Z,6.09
2023-03-06T14:39:11.601Z,6.04
2023-03-06T14:41:39.573Z,5.98
2023-03-06T14:44:22.054Z,5.94
2023-03-06T14:46:55.184Z,5.88
2023-03-06T14:49:25.421Z,5.81
2023-03-06T14:51:55.377Z,5.72
2023-03-06T14:54:29.212Z,5.61
2023-03-06T14:57:02.503Z,5.45
2023-03-06T14:59:34.235Z,5.23
2023-03-06T15:02:05.719Z,4.99
2023-03-06T15:04:36.694Z,4.72
2023-03-06T15:07:12.111Z,4.49
2023-03-06T15:09:43.784Z,4.29
2023-03-06T15:12:27.824Z,4.13
2023-03-06T15:15:00.762Z,3.99
2023-03-06T15:17:27.703Z,3.89
2023-03-06T15:19:57.905Z,3.81
2023-03-06T15:22:32.392Z,3.75
2023-03-06T15:25:16.029Z,3.70
2023-03-06T15:27:49.427Z,3.62
2023-03-06T15:30:35.746Z,3.58
2023-03-06T15:33:24.206Z,3.56
2023-03-06T15:35:55.120Z,3.52
2023-03-06T15:38:30.202Z,3.51
2023-03-06T15:40:59.612Z,3.50
2023-03-06T15:43:31.904Z,3.49
2023-03-06T15:46:00.892Z,3.46
2023-03-06T15:48:28.536Z,3.43
2023-03-06T15:50:55.465Z,3.40
2023-03-06T15:53:22.224Z,3.37
2023-03-06T15:55:51.721Z,3.33
2023-03-06T15:58:23.553Z,3.22
2023-03-06T16:00:50.962Z,3.12
2023-03-06T16:03:18.069Z,3.00
2023-03-06T16:05:44.861Z,2.93
2023-03-06T16:08:15.073Z,2.89
2023-03-06T16:10:43.935Z,2.86
2023-03-06T16:13:28.080Z,2.83
2023-03-06T16:15:55.206Z,2.83
2023-03-06T16:18:21.911Z,2.81
2023-03-06T16:20:49.467Z,2.74
2023-03-06T16:23:16.584Z,2.68
2023-03-06T16:25:48.691Z,2.64
2023-03-06T16:28:16.494Z,2.57
2023-03-06T16:30:44.900Z,2.53
2023-03-06T16:33:13.070Z,2.51
2023-03-06T16:35:41.278Z,2.50
2023-03-06T16:38:10.204Z,2.49
2023-03-06T16:40:41.297Z,2.46
2023-03-06T16:43:10.392Z,2.41
2023-03-06T16:45:40.823Z,2.35
2023-03-06T16:48:10.584Z,2.31
2023-03-06T16:50:40.912Z,2.28
2023-03-06T16:53:08.310Z,2.25
2023-03-06T16:55:35.094Z,2.20
2023-03-06T16:58:02.122Z,2.16
2023-03-06T17:00:31.920Z,2.15
2023-03-06T17:03:00.147Z,2.15
2023-03-06T17:05:28.771Z,2.14
2023-03-06T17:07:56.410Z,2.13
2023-03-06T17:10:26.408Z,2.10
2023-03-06T17:12:54.044Z,2.06
2023-03-06T17:15:20.974Z,2.05
2023-03-06T17:17:48.580Z,2.07
2023-03-06T17:20:15.477Z,2.08
2023-03-06T17:22:42.290Z,2.08
2023-03-06T17:25:09.809Z,2.08
2023-03-06T17:27:37.508Z,2.08
2023-03-06T17:30:05.438Z,2.06
2023-03-06T17:32:32.961Z,2.02
2023-03-06T17:35:00.166Z,2.00
2023-03-06T17:37:27.104Z,1.96
2023-03-06T17:39:54.043Z,1.93
2023-03-06T17:42:20.768Z,1.91
2023-03-06T17:44:48.056Z,1.87
2023-03-06T17:47:14.830Z,1.84
2023-03-06T17:49:41.709Z,1.78
2023-03-06T17:52:09.375Z,1.75
2023-03-06T17:54:36.376Z,1.73
2023-03-06T17:57:05.417Z,1.73
2023-03-06T17:59:34.493Z,1.72
2023-03-06T18:02:02.214Z,1.72
2023-03-06T18:04:29.471Z,1.70
2023-03-06T18:06:57.193Z,1.69
2023-03-06T18:09:24.625Z,1.66
2023-03-06T18:11:51.658Z,1.67
2023-03-06T18:14:18.633Z,1.69
2023-03-06T18:16:45.400Z,1.73
2023-03-06T18:19:12.365Z,1.75
2023-03-06T18:21:40.142Z,1.78
2023-03-06T18:24:07.418Z,1.77
2023-03-06T18:26:34.168Z,1.77
2023-03-06T18:29:04.608Z,1.77
2023-03-06T18:31:35.412Z,1.77
2023-03-06T18:34:06.630Z,1.76
2023-03-06T18:36:34.448Z,1.75
2023-03-06T18:39:03.945Z,1.72
2023-03-06T18:41:31.701Z,1.69
2023-03-06T18:44:00.537Z,1.67
2023-03-06T18:46:33.315Z,1.67
2023-03-06T18:49:01.242Z,1.66
2023-03-06T18:51:28.788Z,1.68
2023-03-06T18:53:58.272Z,1.67
2023-03-06T18:56:25.295Z,1.63
2023-03-06T18:58:52.924Z,1.61
2023-03-06T19:01:20.805Z,1.63
2023-03-06T19:03:47.612Z,1.64
2023-03-06T19:06:16.968Z,1.66
2023-03-06T19:08:44.267Z,1.71
2023-03-06T19:11:14.917Z,1.73
2023-03-06T19:13:42.490Z,1.73
2023-03-06T19:16:16.016Z,1.73
2023-03-06T19:18:42.747Z,1.72
2023-03-06T19:21:14.352Z,1.74
2023-03-06T19:23:42.337Z,1.74
2023-03-06T19:26:09.746Z,1.76
2023-03-06T19:28:39.011Z,1.81
2023-03-06T19:31:10.485Z,1.84
2023-03-06T19:33:37.937Z,1.85
2023-03-06T19:36:06.661Z,1.84
2023-03-06T19:38:34.036Z,1.82
2023-03-06T19:41:01.039Z,1.78
2023-03-06T19:43:29.070Z,1.74
2023-03-06T19:45:56.942Z,1.70
2023-03-06T19:48:24.149Z,1.66
2023-03-06T19:50:50.861Z,1.63
2023-03-06T19:53:17.773Z,1.62
2023-03-06T19:55:44.507Z,1.63
2023-03-06T19:58:11.938Z,1.63
2023-03-06T20:00:38.732Z,1.63
2023-03-06T20:03:05.676Z,1.62
2023-03-06T20:05:32.782Z,1.62
2023-03-06T20:07:59.659Z,1.63
2023-03-06T20:10:26.438Z,1.64
2023-03-06T20:12:53.191Z,1.66
2023-03-06T20:15:22.171Z,1.70
2023-03-06T20:17:48.971Z,1.72
2023-03-06T20:20:16.127Z,1.73
2023-03-06T20:22:42.968Z,1.74
2023-03-06T20:25:09.970Z,1.73
2023-03-06T20:27:37.129Z,1.73
2023-03-06T20:30:19.322Z,1.72
2023-03-06T20:32:46.047Z,1.74
2023-03-06T20:35:28.533Z,1.74
2023-03-06T20:37:55.486Z,1.73
2023-03-06T20:40:22.187Z,1.71
2023-03-06T20:42:48.976Z,1.66
2023-03-06T20:45:15.857Z,1.62
2023-03-06T20:47:47.208Z,1.58
2023-03-06T20:50:15.746Z,1.53
2023-03-06T20:52:42.528Z,1.51
2023-03-06T20:55:09.477Z,1.49
2023-03-06T20:57:36.245Z,1.52
2023-03-06T21:00:05.068Z,1.55
2023-03-06T21:02:31.916Z,1.58
2023-03-06T21:05:00.798Z,1.58
2023-03-06T21:07:27.608Z,1.58
2023-03-06T21:09:54.475Z,1.56
2023-03-06T21:12:21.228Z,1.55
2023-03-06T21:14:48.016Z,1.55
2023-03-06T21:17:14.817Z,1.57
2023-03-06T21:19:41.780Z,1.58
2023-03-06T21:22:08.812Z,1.57
2023-03-06T21:24:35.737Z,1.56
2023-03-06T21:27:02.456Z,1.53
2023-03-06T21:29:29.899Z,1.51
2023-03-06T21:31:56.789Z,1.49
2023-03-06T21:34:23.519Z,1.49
2023-03-06T21:36:51.241Z,1.50
2023-03-06T21:39:17.988Z,1.50
2023-03-06T21:41:44.697Z,1.48
2023-03-06T21:44:11.530Z,1.46
2023-03-06T21:46:38.248Z,1.42
2023-03-06T21:49:05.268Z,1.37
2023-03-06T21:51:32.599Z,1.37
2023-03-06T21:53:59.373Z,1.36
2023-03-06T21:56:28.451Z,1.36
2023-03-06T21:58:55.951Z,1.36
2023-03-06T22:01:26.286Z,1.36
2023-03-06T22:03:53.289Z,1.33
2023-03-06T22:06:24.238Z,1.32
2023-03-06T22:08:51.466Z,1.33
2023-03-06T22:11:20.668Z,1.34
2023-03-06T22:13:48.504Z,1.38
2023-03-06T22:16:16.920Z,1.41
2023-03-06T22:18:45.783Z,1.43
2023-03-06T22:21:14.900Z,1.44
2023-03-06T22:23:41.842Z,1.44
2023-03-06T22:26:12.630Z,1.41
2023-03-06T22:28:40.635Z,1.38
2023-03-06T22:31:09.836Z,1.36
2023-03-06T22:33:37.064Z,1.35
2023-03-06T22:36:07.247Z,1.34
2023-03-06T22:38:35.705Z,1.33
2023-03-06T22:41:03.818Z,1.30
2023-03-06T22:43:31.170Z,1.28
2023-03-06T22:46:15.204Z,1.25
2023-03-06T22:48:42.636Z,1.20
2023-03-06T22:51:13.609Z,1.17
2023-03-06T22:53:40.590Z,1.16
2023-03-06T22:56:09.865Z,1.16
2023-03-06T22:58:37.475Z,1.17
2023-03-06T23:01:07.508Z,1.15
2023-03-06T23:03:36.188Z,1.14
2023-03-06T23:06:09.114Z,1.13
2023-03-06T23:08:36.084Z,1.10
2023-03-06T23:11:08.505Z,1.09
2023-03-06T23:13:50.811Z,1.09
2023-03-06T23:16:33.254Z,1.10
2023-03-06T23:19:15.646Z,1.12
2023-03-06T23:21:57.703Z,1.11
2023-03-06T23:24:40.031Z,1.11
2023-03-06T23:27:06.878Z,1.10
2023-03-06T23:29:33.575Z,1.07
2023-03-06T23:32:00.343Z,1.01
2023-03-06T23:34:27.153Z,0.97
2023-03-06T23:36:53.865Z,0.95
2023-03-06T23:39:21.662Z,0.94
2023-03-06T23:41:48.507Z,0.94
2023-03-06T23:44:15.220Z,0.94
2023-03-06T23:46:42.585Z,0.95
2023-03-06T23:49:09.309Z,0.94
2023-03-06T23:51:36.041Z,0.92
2023-03-06T23:54:02.841Z,0.90
2023-03-06T23:56:29.634Z,0.87
2023-03-06T23:58:56.422Z,0.83
